Time,TemperatureF,DewpointF,PressureIn,WindDirection,WindDirectionDegrees,WindSpeedMPH,WindSpeedGustMPH,Humidity,HourlyPrecipIn,Conditions,Clouds,dailyrainin,SoftwareType,DateUTC
2013-02-01 00:12:00,29.7,21.0,30.41,ENE,73,5.0,8.0,71,0.00,,,0.00,weatherlink.com 1.10,2013-02-01 06:12:00,
2013-02-01 00:27:00,29.2,21.0,30.41,NE,42,7.0,9.0,71,0.00,,,0.00,weatherlink.com 1.10,2013-02-01 06:27:00,
2013-02-01 00:42:00,28.8,18.0,30.42,ENE,58,3.0,12.0,65,0.00,,,0.00,weatherlink.com 1.10,2013-02-01 06:42:00,
2013-02-01 00:57:00,28.2,18.0,30.42,ENE,68,6.0,8.0,65,0.00,,,0.00,weatherlink.com 1.10,2013-02-01 06:57:00,
2013-02-01 01:12:00,27.7,17.0,30.43,NE,47,5.0,8.0,64,0.00,,,0.00,weatherlink.com 1.10,2013-02-01 07:12:00,
2013-02-01 01:27:00,27.3,17.0,30.43,NE,51,2.0,8.0,65,0.00,,,0.00,weatherlink.com 1.10,2013-02-01 07:27:00,
2013-02-01 01:42:00,26.9,17.0,30.44,NE,42,2.0,5.0,66,0.00,,,0.00,weatherlink.com 1.10,2013-02-01 07:42:00,
2013-02-01 01:57:00,26.6,17.0,30.44,NE,41,6.0,7.0,66,0.00,,,0.00,weatherlink.com 1.10,2013-02-01 07:57:00,
2013-02-01 02:12:00,26.3,16.0,30.44,NE,56,2.0,7.0,66,0.00,,,0.00,weatherlink.com 1.10,2013-02-01 08:12:00,
2013-02-01 02:28:00,26.1,16.0,30.44,ENE,60,0.0,6.0,66,0.00,,,0.00,weatherlink.com 1.10,2013-02-01 08:28:00,
2013-02-01 02:42:00,25.7,16.0,30.44,NE,47,2.0,4.0,67,0.00,,,0.00,weatherlink.com 1.10,2013-02-01 08:42:00,
2013-02-01 02:58:00,25.3,16.0,30.45,ENE,62,2.0,6.0,68,0.00,,,0.00,weatherlink.com 1.10,2013-02-01 08:58:00,
2013-02-01 03:13:00,24.9,16.0,30.45,ENE,64,3.0,5.0,68,0.00,,,0.00,weatherlink.com 1.10,2013-02-01 09:13:00,
2013-02-01 03:28:00,24.6,16.0,30.45,ENE,58,2.0,5.0,69,0.00,,,0.00,weatherlink.com 1.10,2013-02-01 09:28:00,
2013-02-01 03:43:00,24.0,16.0,30.45,NE,41,3.0,4.0,70,0.00,,,0.00,weatherlink.com 1.10,2013-02-01 09:43:00,
2013-02-01 03:58:00,23.7,16.0,30.44,NE,44,3.0,4.0,71,0.00,,,0.00,weatherlink.com 1.10,2013-02-01 09:58:00,
2013-02-01 04:13:00,23.3,16.0,30.44,ENE,66,1.0,3.0,72,0.00,,,0.00,weatherlink.com 1.10,2013-02-01 10:13:00,
2013-02-01 04:28:00,23.0,15.0,30.44,NE,49,0.0,4.0,72,0.00,,,0.00,weatherlink.com 1.10,2013-02-01 10:28:00,
2013-02-01 04:43:00,22.7,15.0,30.43,NE,49,2.0,4.0,72,0.00,,,0.00,weatherlink.com 1.10,2013-02-01 10:43:00,
2013-02-01 04:58:00,22.8,14.0,30.43,ENE,60,0.0,4.0,70,0.00,,,0.00,weatherlink.com 1.10,2013-02-01 10:58:00,
2013-02-01 05:13:00,22.5,14.0,30.44,ENE,64,0.0,2.0,69,0.00,,,0.00,weatherlink.com 1.10,2013-02-01 11:13:00,
2013-02-01 05:28:00,22.5,12.0,30.44,NE,55,0.0,5.0,65,0.00,,,0.00,weatherlink.com 1.10,2013-02-01 11:28:00,
2013-02-01 05:43:00,22.5,11.0,30.45,NE,47,0.0,5.0,62,0.00,,,0.00,weatherlink.com 1.10,2013-02-01 11:43:00,
2013-02-01 05:58:00,22.5,10.0,30.45,ENE,58,0.0,4.0,59,0.00,,,0.00,weatherlink.com 1.10,2013-02-01 11:58:00,
2013-02-01 06:13:00,22.2,9.0,30.45,NE,47,1.0,3.0,58,0.00,,,0.00,weatherlink.com 1.10,2013-02-01 12:13:00,
2013-02-01 06:28:00,22.2,9.0,30.45,NE,49,1.0,3.0,57,0.00,,,0.00,weatherlink.com 1.10,2013-02-01 12:28:00,
2013-02-01 06:43:00,21.9,9.0,30.44,ENE,72,0.0,2.0,58,0.00,,,0.00,weatherlink.com 1.10,2013-02-01 12:43:00,
2013-02-01 06:58:00,21.4,10.0,30.43,ESE,102,0.0,1.0,61,0.00,,,0.00,weatherlink.com 1.10,2013-02-01 12:58:00,
2013-02-01 07:13:00,20.9,10.0,30.43,NE,46,0.0,1.0,62,0.00,,,0.00,weatherlink.com 1.10,2013-02-01 13:13:00,
2013-02-01 07:28:00,20.9,10.0,30.44,ENE,61,0.0,0.0,62,0.00,,,0.00,weatherlink.com 1.10,2013-02-01 13:28:00,
2013-02-01 07:43:00,20.9,10.0,30.45,ESE,105,0.0,1.0,64,0.00,,,0.00,weatherlink.com 1.10,2013-02-01 13:43:00,
2013-02-01 07:58:00,21.8,11.0,30.46,SE,128,1.0,3.0,63,0.00,,,0.00,weatherlink.com 1.10,2013-02-01 13:58:00,
2013-02-01 08:13:00,22.6,11.0,30.46,East,89,1.0,3.0,62,0.00,,,0.00,weatherlink.com 1.10,2013-02-01 14:13:00,
2013-02-01 08:28:00,23.7,12.0,30.46,ESE,108,1.0,5.0,60,0.00,,,0.00,weatherlink.com 1.10,2013-02-01 14:28:00,
2013-02-01 09:13:00,26.7,12.0,30.46,NE,54,1.0,4.0,54,0.00,,,0.00,weatherlink.com 1.10,2013-02-01 15:13:00,
2013-02-01 09:29:00,27.3,12.0,30.46,NE,54,2.0,5.0,52,0.00,,,0.00,weatherlink.com 1.10,2013-02-01 15:29:00,
2013-02-01 09:44:00,28.2,12.0,30.45,NE,40,3.0,4.0,51,0.00,,,0.00,weatherlink.com 1.10,2013-02-01 15:44:00,
2013-02-01 09:59:00,29.2,13.0,30.46,WSW,240,0.0,4.0,51,0.00,,,0.00,weatherlink.com 1.10,2013-02-01 15:59:00,
2013-02-01 10:14:00,31.0,13.0,30.45,ENE,57,3.0,4.0,48,0.00,,,0.00,weatherlink.com 1.10,2013-02-01 16:14:00,
2013-02-01 10:29:00,31.9,13.0,30.44,NE,49,5.0,5.0,46,0.00,,,0.00,weatherlink.com 1.10,2013-02-01 16:29:00,
2013-02-01 10:44:00,33.2,15.0,30.44,ESE,120,0.0,8.0,47,0.00,,,0.00,weatherlink.com 1.10,2013-02-01 16:44:00,
2013-02-01 10:59:00,34.8,15.0,30.43,SSE,155,3.0,5.0,45,0.00,,,0.00,weatherlink.com 1.10,2013-02-01 16:59:00,
2013-02-01 11:14:00,36.4,17.0,30.43,SE,136,2.0,6.0,45,0.00,,,0.00,weatherlink.com 1.10,2013-02-01 17:14:00,
2013-02-01 11:29:00,37.9,18.0,30.42,SSE,148,4.0,7.0,45,0.00,,,0.00,weatherlink.com 1.10,2013-02-01 17:29:00,
2013-02-01 11:44:00,38.8,18.0,30.41,ESE,108,3.0,10.0,44,0.00,,,0.00,weatherlink.com 1.10,2013-02-01 17:44:00,
2013-02-01 11:59:00,40.7,20.0,30.39,East,89,1.0,9.0,43,0.00,,,0.00,weatherlink.com 1.10,2013-02-01 17:59:00,
2013-02-01 12:14:00,42.0,20.0,30.38,East,84,5.0,7.0,42,0.00,,,0.00,weatherlink.com 1.10,2013-02-01 18:14:00,
2013-02-01 12:29:00,43.3,21.0,30.37,ENE,73,4.0,8.0,41,0.00,,,0.00,weatherlink.com 1.10,2013-02-01 18:29:00,
2013-02-01 12:44:00,45.5,22.0,30.35,East,88,4.0,9.0,40,0.00,,,0.00,weatherlink.com 1.10,2013-02-01 18:44:00,
2013-02-01 12:59:00,46.6,23.0,30.34,SE,136,5.0,13.0,39,0.00,,,0.00,weatherlink.com 1.10,2013-02-01 18:59:00,
2013-02-01 13:14:00,47.1,23.0,30.33,SE,127,1.0,12.0,39,0.00,,,0.00,weatherlink.com 1.10,2013-02-01 19:14:00,
2013-02-01 13:29:00,48.3,24.0,30.32,SE,131,8.0,13.0,38,0.00,,,0.00,weatherlink.com 1.10,2013-02-01 19:29:00,
2013-02-01 13:44:00,49.3,24.0,30.31,ESE,117,9.0,17.0,38,0.00,,,0.00,weatherlink.com 1.10,2013-02-01 19:44:00,
2013-02-01 14:00:00,49.4,26.0,30.30,SSE,163,6.0,13.0,40,0.00,,,0.00,weatherlink.com 1.10,2013-02-01 20:00:00,
2013-02-01 14:15:00,50.3,25.0,30.29,SSE,164,4.0,9.0,38,0.00,,,0.00,weatherlink.com 1.10,2013-02-01 20:15:00,
2013-02-01 14:30:00,50.6,25.0,30.29,SE,146,8.0,13.0,37,0.00,,,0.00,weatherlink.com 1.10,2013-02-01 20:30:00,
2013-02-01 14:45:00,50.8,26.0,30.28,ESE,122,10.0,14.0,39,0.00,,,0.00,weatherlink.com 1.10,2013-02-01 20:45:00,
2013-02-01 15:00:00,51.6,27.0,30.27,ESE,117,6.0,15.0,38,0.00,,,0.00,weatherlink.com 1.10,2013-02-01 21:00:00,
2013-02-01 15:15:00,51.5,27.0,30.26,SSE,150,4.0,14.0,39,0.00,,,0.00,weatherlink.com 1.10,2013-02-01 21:15:00,
2013-02-01 15:30:00,52.1,28.0,30.24,SE,134,6.0,16.0,39,0.00,,,0.00,weatherlink.com 1.10,2013-02-01 21:30:00,
2013-02-01 15:45:00,53.1,29.0,30.24,South,188,5.0,13.0,39,0.00,,,0.00,weatherlink.com 1.10,2013-02-01 21:45:00,
2013-02-01 16:00:00,53.9,29.0,30.23,SE,146,3.0,10.0,39,0.00,,,0.00,weatherlink.com 1.10,2013-02-01 22:00:00,
2013-02-01 16:15:00,53.8,29.0,30.22,SE,134,2.0,12.0,39,0.00,,,0.00,weatherlink.com 1.10,2013-02-01 22:15:00,
2013-02-01 16:30:00,54.1,30.0,30.22,ESE,113,0.0,10.0,40,0.00,,,0.00,weatherlink.com 1.10,2013-02-01 22:30:00,
2013-02-01 16:45:00,54.0,30.0,30.21,SE,136,8.0,14.0,40,0.00,,,0.00,weatherlink.com 1.10,2013-02-01 22:45:00,
2013-02-01 17:00:00,53.7,30.0,30.21,SE,143,3.0,11.0,41,0.00,,,0.00,weatherlink.com 1.10,2013-02-01 23:00:00,
2013-02-01 17:15:00,53.0,30.0,30.20,SSE,157,6.0,14.0,42,0.00,,,0.00,weatherlink.com 1.10,2013-02-01 23:15:00,
2013-02-01 17:30:00,52.3,30.0,30.20,SE,139,7.0,11.0,43,0.00,,,0.00,weatherlink.com 1.10,2013-02-01 23:30:00,
2013-02-01 17:45:00,51.2,30.0,30.20,WSW,256,1.0,7.0,45,0.00,,,0.00,weatherlink.com 1.10,2013-02-01 23:45:00,
2013-02-01 18:00:00,50.2,30.0,30.20,SSE,165,5.0,8.0,47,0.00,,,0.00,weatherlink.com 1.10,2013-02-02 00:00:00,
2013-02-01 18:15:00,49.3,30.0,30.20,SSE,153,0.0,6.0,48,0.00,,,0.00,weatherlink.com 1.10,2013-02-02 00:15:00,
2013-02-01 18:30:00,48.0,30.0,30.21,SSE,164,0.0,3.0,50,0.00,,,0.00,weatherlink.com 1.10,2013-02-02 00:30:00,
2013-02-01 18:45:00,46.3,30.0,30.21,South,184,0.0,2.0,53,0.00,,,0.00,weatherlink.com 1.10,2013-02-02 00:45:00,
2013-02-01 19:00:00,45.7,30.0,30.21,SW,225,0.0,3.0,55,0.00,,,0.00,weatherlink.com 1.10,2013-02-02 01:00:00,
2013-02-01 19:15:00,45.2,31.0,30.22,SSE,152,0.0,2.0,57,0.00,,,0.00,weatherlink.com 1.10,2013-02-02 01:15:00,
2013-02-01 19:30:00,44.4,30.0,30.22,SE,146,0.0,2.0,58,0.00,,,0.00,weatherlink.com 1.10,2013-02-02 01:30:00,
2013-02-01 19:45:00,42.6,29.0,30.22,SE,134,0.0,1.0,60,0.00,,,0.00,weatherlink.com 1.10,2013-02-02 01:45:00,
2013-02-01 20:00:00,41.6,30.0,30.21,SSE,157,0.0,1.0,64,0.00,,,0.00,weatherlink.com 1.10,2013-02-02 02:00:00,
2013-02-01 20:15:00,41.5,30.0,30.22,SE,143,0.0,2.0,64,0.00,,,0.00,weatherlink.com 1.10,2013-02-02 02:15:00,
2013-02-01 20:30:00,39.4,29.0,30.22,SSE,154,0.0,0.0,67,0.00,,,0.00,weatherlink.com 1.10,2013-02-02 02:30:00,
2013-02-01 20:45:00,39.3,30.0,30.22,SE,136,0.0,0.0,69,0.00,,,0.00,weatherlink.com 1.10,2013-02-02 02:45:00,
2013-02-01 21:00:00,39.1,30.0,30.23,SE,143,0.0,1.0,69,0.00,,,0.00,weatherlink.com 1.10,2013-02-02 03:00:00,
2013-02-01 21:15:00,38.6,30.0,30.22,SE,137,0.0,1.0,71,0.00,,,0.00,weatherlink.com 1.10,2013-02-02 03:15:00,
2013-02-01 21:30:00,39.3,31.0,30.22,SSE,162,1.0,3.0,72,0.00,,,0.00,weatherlink.com 1.10,2013-02-02 03:30:00,
2013-02-01 21:45:00,39.5,30.0,30.22,SE,134,0.0,1.0,70,0.00,,,0.00,weatherlink.com 1.10,2013-02-02 03:45:00,
2013-02-01 22:00:00,38.8,30.0,30.22,ESE,117,0.0,1.0,71,0.00,,,0.00,weatherlink.com 1.10,2013-02-02 04:00:00,
2013-02-01 22:15:00,36.8,30.0,30.21,ESE,117,0.0,0.0,76,0.00,,,0.00,weatherlink.com 1.10,2013-02-02 04:15:00,
2013-02-01 22:30:00,36.1,30.0,30.21,ESE,119,0.0,0.0,79,0.00,,,0.00,weatherlink.com 1.10,2013-02-02 04:30:00,
2013-02-01 22:45:00,36.1,30.0,30.21,SSE,156,0.0,1.0,79,0.00,,,0.00,weatherlink.com 1.10,2013-02-02 04:45:00,
2013-02-01 23:00:00,35.3,30.0,30.21,SSE,156,0.0,0.0,81,0.00,,,0.00,weatherlink.com 1.10,2013-02-02 05:00:00,
2013-02-01 23:15:00,35.6,31.0,30.20,SSE,156,0.0,1.0,82,0.00,,,0.00,weatherlink.com 1.10,2013-02-02 05:15:00,
2013-02-01 23:30:00,34.2,29.0,30.20,SSE,156,0.0,0.0,81,0.00,,,0.00,weatherlink.com 1.10,2013-02-02 05:30:00,
2013-02-01 23:45:00,33.7,29.0,30.19,SE,135,0.0,0.0,84,0.00,,,0.00,weatherlink.com 1.10,2013-02-02 05:45:00,